Time;durP1;ratioP1;P1;durP2;ratioP2;P2;SDS_P1;SDS_P2;PMS_P1;PMS_P2;Temp;Humidity;BMP_temperature;BMP_pressure;BME280_temperature;BME280_humidity;BME280_pressure;Samples;Min_cycle;Max_cycle;Signal;HPM_P1;HPM_P2
2023/05/05 00:01:59;;;;;;;6.60;3.92;;;11.50;99.90;;;;;;4935866;28;20462;-93
2023/05/05 00:04:24;;;;;;;5.93;4.00;;;11.60;99.90;;;;;;4933730;28;20414;-93
2023/05/05 00:06:50;;;;;;;8.60;4.20;;;11.50;99.90;;;;;;4935910;28;20408;-94
2023/05/05 00:09:16;;;;;;;7.50;3.90;;;11.50;99.90;;;;;;4933713;28;20440;-95
2023/05/05 00:11:41;;;;;;;7.37;4.03;;;12.10;99.90;;;;;;4936302;28;21001;-95
2023/05/05 00:14:07;;;;;;;6.53;3.92;;;11.60;99.90;;;;;;4934735;28;20404;-93
2023/05/05 00:16:33;;;;;;;7.20;4.00;;;11.70;99.90;;;;;;4938954;28;20428;-93
2023/05/05 00:18:59;;;;;;;7.83;4.37;;;11.50;99.90;;;;;;4938636;28;20424;-92
2023/05/05 00:21:26;;;;;;;7.38;4.35;;;11.30;99.90;;;;;;4937931;28;20428;-93
2023/05/05 00:23:52;;;;;;;7.82;4.53;;;11.70;99.90;;;;;;4939319;28;20416;-92
2023/05/05 00:26:18;;;;;;;8.35;4.40;;;11.60;99.90;;;;;;4936819;28;20419;-94
2023/05/05 00:28:44;;;;;;;8.67;4.13;;;11.60;99.90;;;;;;4939162;28;20416;-93
2023/05/05 00:31:09;;;;;;;7.15;4.50;;;11.60;99.90;;;;;;4937002;28;20469;-94
2023/05/05 00:33:35;;;;;;;7.35;4.35;;;11.30;99.90;;;;;;4939130;28;20412;-94
2023/05/05 00:36:01;;;;;;;7.60;4.40;;;11.70;99.90;;;;;;4937408;28;20431;-95
2023/05/05 00:38:27;;;;;;;7.30;4.13;;;11.80;99.90;;;;;;4938520;28;20410;-93
2023/05/05 00:40:53;;;;;;;7.32;4.43;;;11.70;99.90;;;;;;4938400;28;20483;-92
2023/05/05 00:43:18;;;;;;;8.82;4.57;;;12.40;99.90;;;;;;4936881;28;20444;-93
2023/05/05 00:45:46;;;;;;;8.25;4.55;;;11.70;99.90;;;;;;4938783;28;20416;-92
2023/05/05 00:48:12;;;;;;;8.68;5.32;;;11.90;99.90;;;;;;4936381;28;20770;-93
2023/05/05 00:50:41;;;;;;;6.93;4.43;;;11.60;99.90;;;;;;4939147;28;20797;-93
2023/05/05 00:53:07;;;;;;;7.15;4.38;;;11.80;99.90;;;;;;4936369;28;20418;-94
2023/05/05 00:55:34;;;;;;;7.53;4.93;;;11.70;99.90;;;;;;4938599;28;20417;-94
2023/05/05 00:58:03;;;;;;;9.20;4.85;;;11.80;99.90;;;;;;4937388;28;20408;-94
2023/05/05 01:00:29;;;;;;;9.30;5.15;;;11.40;99.90;;;;;;4936769;28;20453;-94
2023/05/05 01:02:55;;;;;;;7.65;4.53;;;11.40;99.90;;;;;;4938793;28;20411;-95
2023/05/05 01:05:26;;;;;;;8.88;4.70;;;11.40;99.90;;;;;;4936389;28;20413;-95
2023/05/05 01:07:58;;;;;;;7.95;4.55;;;11.70;99.90;;;;;;4938643;28;20783;-92
2023/05/05 01:10:35;;;;;;;8.50;5.07;;;11.80;99.90;;;;;;4936160;28;20416;-93
2023/05/05 01:13:26;;;;;;;10.02;4.95;;;11.20;99.90;;;;;;4938354;28;20420;-94
2023/05/05 01:16:02;;;;;;;8.88;5.18;;;11.20;99.90;;;;;;4938572;28;20848;-94
2023/05/05 01:18:46;;;;;;;8.77;4.60;;;11.10;99.90;;;;;;4935779;28;20451;-91
2023/05/05 01:21:52;;;;;;;6.57;4.78;;;11.10;99.90;;;;;;4938279;28;20483;-93
2023/05/05 01:24:45;;;;;;;7.53;4.65;;;11.00;99.90;;;;;;4937927;28;20420;-93
2023/05/05 01:27:21;;;;;;;9.85;4.75;;;11.00;99.90;;;;;;4935296;28;20424;-93
2023/05/05 01:30:04;;;;;;;6.97;4.80;;;10.90;99.90;;;;;;4937681;28;20412;-95
2023/05/05 01:32:34;;;;;;;9.10;5.03;;;11.00;99.90;;;;;;4936378;28;20423;-95
2023/05/05 01:35:21;;;;;;;7.63;4.72;;;10.90;99.90;;;;;;4937117;28;20881;-92
2023/05/05 01:38:04;;;;;;;7.63;4.93;;;11.00;99.90;;;;;;4937997;28;20416;-93
2023/05/05 01:40:32;;;;;;;7.05;4.70;;;10.90;99.90;;;;;;4935336;28;20443;-93
2023/05/05 01:43:00;;;;;;;9.68;5.03;;;11.00;99.90;;;;;;4937862;28;20412;-93
2023/05/05 01:45:30;;;;;;;9.10;5.20;;;11.20;99.90;;;;;;4935730;28;20412;-94
2023/05/05 01:47:58;;;;;;;7.38;4.75;;;11.40;99.90;;;;;;4937135;28;20408;-92
2023/05/05 01:50:27;;;;;;;8.43;4.97;;;11.10;99.90;;;;;;4937482;28;20466;-93
2023/05/05 01:52:54;;;;;;;7.72;4.88;;;10.90;99.90;;;;;;4935534;28;20404;-94
2023/05/05 01:55:22;;;;;;;6.18;4.80;;;11.10;99.90;;;;;;4937632;28;20495;-94
2023/05/05 01:57:48;;;;;;;6.35;4.70;;;10.90;99.90;;;;;;4935568;28;20463;-95
2023/05/05 02:00:18;;;;;;;6.70;4.90;;;11.20;99.90;;;;;;4938297;28;20836;-95
2023/05/05 02:02:48;;;;;;;8.70;4.90;;;11.00;99.90;;;;;;4935986;28;20939;-94
2023/05/05 02:05:18;;;;;;;7.53;4.95;;;11.10;99.90;;;;;;4937033;28;20423;-93
2023/05/05 02:07:45;;;;;;;7.47;4.95;;;11.20;99.90;;;;;;4936996;28;20408;-94
2023/05/05 02:10:16;;;;;;;8.02;4.88;;;10.70;99.90;;;;;;4935619;28;20781;-93
2023/05/05 02:12:45;;;;;;;6.80;4.30;;;11.00;99.90;;;;;;4937621;28;20436;-95
2023/05/05 02:15:13;;;;;;;8.38;4.55;;;10.90;99.90;;;;;;4934811;28;20463;-93
2023/05/05 02:17:42;;;;;;;6.55;4.43;;;10.80;99.90;;;;;;4937123;28;20416;-93
2023/05/05 02:20:13;;;;;;;8.50;4.95;;;11.10;99.90;;;;;;4934764;28;20909;-94
2023/05/05 02:22:39;;;;;;;8.07;4.60;;;10.80;99.90;;;;;;4936538;28;20414;-94
2023/05/05 02:25:06;;;;;;;5.80;4.22;;;11.80;99.90;;;;;;4936651;28;20417;-94
2023/05/05 02:27:34;;;;;;;7.57;4.60;;;10.90;99.90;;;;;;4934766;28;20419;-94
2023/05/05 02:30:07;;;;;;;7.18;4.25;;;11.10;99.90;;;;;;4936833;28;20416;-93
2023/05/05 02:32:52;;;;;;;8.77;4.33;;;10.90;99.90;;;;;;4934571;28;20424;-93
2023/05/05 02:35:21;;;;;;;5.33;4.10;;;10.90;99.90;;;;;;4936994;28;20927;-94
2023/05/05 02:37:54;;;;;;;7.00;4.22;;;11.10;99.90;;;;;;4934660;28;20420;-95
2023/05/05 02:40:23;;;;;;;6.60;4.10;;;11.00;99.90;;;;;;4935640;28;20527;-91
2023/05/05 02:42:52;;;;;;;8.47;4.20;;;11.20;99.90;;;;;;4936779;28;20412;-94
2023/05/05 02:45:21;;;;;;;6.63;4.32;;;11.20;99.90;;;;;;4934184;28;20416;-93
2023/05/05 02:47:47;;;;;;;6.50;4.00;;;10.90;99.90;;;;;;4937296;28;20423;-92
2023/05/05 02:50:14;;;;;;;7.40;4.43;;;10.80;99.90;;;;;;4934737;28;20416;-94
2023/05/05 02:52:40;;;;;;;8.00;4.65;;;11.40;99.90;;;;;;4936379;28;20427;-93
2023/05/05 02:55:07;;;;;;;6.47;4.50;;;11.20;99.90;;;;;;4935024;28;20408;-95
2023/05/05 02:57:40;;;;;;;8.40;4.22;;;10.80;99.90;;;;;;4935948;28;21107;-95
2023/05/05 03:00:23;;;;;;;7.33;4.10;;;10.50;99.90;;;;;;4936336;28;20992;-90
2023/05/05 03:02:48;;;;;;;7.30;4.38;;;10.20;99.90;;;;;;4934537;28;20408;-92
2023/05/05 03:05:23;;;;;;;7.43;4.68;;;10.70;99.90;;;;;;4936524;28;20424;-91
2023/05/05 03:08:01;;;;;;;7.22;4.15;;;10.90;99.90;;;;;;4934432;28;20507;-92
2023/05/05 03:10:33;;;;;;;7.70;4.70;;;10.60;99.90;;;;;;4936275;28;20770;-93
2023/05/05 03:13:01;;;;;;;6.90;4.47;;;10.60;99.90;;;;;;4936540;28;20841;-93
2023/05/05 03:15:34;;;;;;;7.40;4.75;;;10.80;99.90;;;;;;4934166;28;20423;-92
2023/05/05 03:18:02;;;;;;;7.90;4.57;;;10.60;99.90;;;;;;4936768;28;20427;-93
2023/05/05 03:20:28;;;;;;;7.45;4.47;;;10.70;99.90;;;;;;4934116;28;20864;-92
2023/05/05 03:22:54;;;;;;;6.18;3.95;;;11.00;99.90;;;;;;4936609;28;20413;-92
2023/05/05 03:25:20;;;;;;;6.57;5.00;;;10.40;99.90;;;;;;4934433;28;20420;-90
2023/05/05 03:27:45;;;;;;;6.13;4.63;;;10.80;99.90;;;;;;4935937;28;20435;-92
2023/05/05 03:30:11;;;;;;;5.90;4.40;;;11.20;99.90;;;;;;4935348;28;20439;-91
2023/05/05 03:32:37;;;;;;;6.90;4.40;;;10.80;99.90;;;;;;4934553;28;20412;-90
2023/05/05 03:35:03;;;;;;;6.27;4.53;;;10.80;99.90;;;;;;4936571;28;20459;-90
2023/05/05 03:37:29;;;;;;;8.20;5.30;;;10.80;99.90;;;;;;4934293;28;20412;-90
2023/05/05 03:39:54;;;;;;;7.40;4.80;;;11.20;99.90;;;;;;4935947;28;20725;-90
2023/05/05 03:42:20;;;;;;;7.50;5.50;;;11.20;99.90;;;;;;4933544;28;20446;-90
2023/05/05 03:44:46;;;;;;;7.78;5.80;;;10.90;99.90;;;;;;4935625;28;20499;-90
2023/05/05 03:47:11;;;;;;;10.23;6.00;;;10.80;99.90;;;;;;4934193;28;20499;-91
2023/05/05 03:49:37;;;;;;;7.55;6.13;;;10.90;99.90;;;;;;4937274;28;20511;-92
2023/05/05 03:52:03;;;;;;;7.35;6.63;;;10.80;99.90;;;;;;4939659;28;20543;-90
2023/05/05 03:54:28;;;;;;;8.13;6.60;;;10.90;99.90;;;;;;4937840;28;20419;-89
2023/05/05 03:56:55;;;;;;;8.43;6.20;;;11.10;99.90;;;;;;4940479;28;20447;-91
2023/05/05 03:59:20;;;;;;;8.98;6.75;;;11.10;99.90;;;;;;4937556;28;20481;-91
2023/05/05 04:01:47;;;;;;;8.93;7.40;;;11.00;99.90;;;;;;4939947;28;20927;-92
2023/05/05 04:04:13;;;;;;;8.88;7.68;;;11.30;99.90;;;;;;4938153;28;21108;-90
2023/05/05 04:06:39;;;;;;;9.50;7.65;;;10.80;99.90;;;;;;4939527;28;20455;-90
2023/05/05 04:09:05;;;;;;;8.53;6.90;;;10.80;99.90;;;;;;4938852;28;20416;-89
2023/05/05 04:11:30;;;;;;;8.15;6.82;;;10.70;99.90;;;;;;4938674;28;20451;-90
2023/05/05 04:13:56;;;;;;;8.50;7.28;;;10.80;99.90;;;;;;4939686;28;20423;-90
2023/05/05 04:16:22;;;;;;;10.47;7.07;;;10.80;99.90;;;;;;4937310;28;20423;-90
2023/05/05 04:18:48;;;;;;;9.53;7.70;;;10.70;99.90;;;;;;4939828;28;21040;-91
2023/05/05 04:21:13;;;;;;;11.00;7.93;;;10.90;99.90;;;;;;4937382;28;21302;-92
2023/05/05 04:23:39;;;;;;;7.68;6.70;;;10.70;99.90;;;;;;4939353;28;20984;-89
2023/05/05 04:26:05;;;;;;;9.90;7.13;;;10.90;99.90;;;;;;4937407;28;20416;-91
2023/05/05 04:28:31;;;;;;;11.57;7.73;;;10.80;99.90;;;;;;4938770;28;20412;-90
2023/05/05 04:30:58;;;;;;;9.40;8.40;;;11.10;99.90;;;;;;4939124;28;20423;-91
2023/05/05 04:33:23;;;;;;;11.52;9.43;;;10.60;99.90;;;;;;4937949;28;20412;-92
2023/05/05 04:35:49;;;;;;;14.85;10.25;;;10.60;99.90;;;;;;4939376;28;20420;-94
2023/05/05 04:38:15;;;;;;;12.88;10.45;;;10.60;99.90;;;;;;4936608;28;20419;-92
2023/05/05 04:40:41;;;;;;;11.98;10.18;;;11.00;99.90;;;;;;4939290;28;20435;-91
2023/05/05 04:43:07;;;;;;;11.87;10.27;;;10.60;99.90;;;;;;4936887;28;20794;-90
2023/05/05 04:45:32;;;;;;;11.35;9.82;;;10.50;99.90;;;;;;4938558;28;20420;-92
2023/05/05 04:47:59;;;;;;;11.70;9.52;;;10.90;99.90;;;;;;4936141;28;20467;-92
2023/05/05 04:50:24;;;;;;;12.80;10.60;;;10.40;99.90;;;;;;4937184;28;20444;-93
2023/05/05 04:52:50;;;;;;;12.40;9.87;;;10.00;99.90;;;;;;4937326;28;20460;-93
2023/05/05 04:55:16;;;;;;;11.50;9.53;;;10.20;99.90;;;;;;4935894;28;20830;-93
2023/05/05 04:57:41;;;;;;;13.80;9.50;;;10.20;99.90;;;;;;4938065;28;20416;-90
2023/05/05 05:00:08;;;;;;;11.43;9.43;;;10.00;99.90;;;;;;4934812;28;20748;-93
2023/05/05 05:02:33;;;;;;;12.20;9.45;;;10.20;99.90;;;;;;4937150;28;20991;-91
2023/05/05 05:04:59;;;;;;;13.18;9.70;;;10.60;99.90;;;;;;4935186;28;20467;-92
2023/05/05 05:07:25;;;;;;;11.23;9.10;;;10.40;99.90;;;;;;4937373;28;21011;-93
2023/05/05 05:09:51;;;;;;;12.25;10.40;;;10.20;99.90;;;;;;4936385;28;20717;-92
2023/05/05 05:12:16;;;;;;;12.45;9.77;;;10.50;99.90;;;;;;4936446;28;20931;-91
2023/05/05 05:14:42;;;;;;;13.77;10.00;;;10.10;99.90;;;;;;4937407;28;20463;-91
2023/05/05 05:17:08;;;;;;;11.43;9.60;;;10.10;99.90;;;;;;4934678;28;20416;-90
2023/05/05 05:19:34;;;;;;;10.48;9.23;;;10.30;99.90;;;;;;4936998;28;20492;-91
2023/05/05 05:22:00;;;;;;;11.93;10.17;;;10.30;99.90;;;;;;4910036;29;20485;-93
2023/05/05 05:24:26;;;;;;;11.87;8.87;;;10.10;99.90;;;;;;4897597;29;20451;-89
2023/05/05 05:26:52;;;;;;;12.33;10.77;;;10.10;99.90;;;;;;4895598;29;20404;-92
2023/05/05 05:29:19;;;;;;;12.47;9.93;;;10.20;99.90;;;;;;4905162;29;20428;-91
2023/05/05 05:31:45;;;;;;;12.18;10.00;;;10.30;99.90;;;;;;4906501;29;20430;-91
2023/05/05 05:34:10;;;;;;;11.88;9.52;;;10.40;99.90;;;;;;4916355;29;20418;-91
2023/05/05 05:36:36;;;;;;;11.60;9.97;;;10.70;99.90;;;;;;4918102;29;20448;-92
2023/05/05 05:39:01;;;;;;;12.68;10.45;;;10.40;99.90;;;;;;4914951;29;20578;-92
2023/05/05 05:41:27;;;;;;;11.93;9.90;;;10.50;99.90;;;;;;4917852;29;20437;-92
2023/05/05 05:43:53;;;;;;;12.73;9.60;;;10.50;99.90;;;;;;4915020;28;20460;-92
2023/05/05 05:46:19;;;;;;;10.90;9.75;;;10.70;99.90;;;;;;4917880;29;21293;-92
2023/05/05 05:48:44;;;;;;;12.07;10.23;;;10.80;99.90;;;;;;4915738;29;20781;-91
2023/05/05 05:51:10;;;;;;;13.67;10.40;;;10.80;99.90;;;;;;4916361;29;20414;-92
2023/05/05 05:53:36;;;;;;;10.57;9.50;;;10.80;99.90;;;;;;4916875;29;20481;-93
2023/05/05 05:56:02;;;;;;;11.57;10.27;;;11.00;99.90;;;;;;4915430;29;20421;-93
2023/05/05 05:58:27;;;;;;;10.98;9.60;;;11.00;99.90;;;;;;4917769;29;20414;-91
2023/05/05 06:00:53;;;;;;;12.17;9.93;;;11.00;99.90;;;;;;4914750;29;20434;-92
2023/05/05 06:03:19;;;;;;;10.40;9.13;;;11.30;99.90;;;;;;4917682;29;20422;-90
2023/05/05 06:05:47;;;;;;;11.43;9.48;;;11.00;99.90;;;;;;4914382;29;20426;-94
2023/05/05 06:08:12;;;;;;;10.90;9.82;;;11.10;99.90;;;;;;4916413;29;20421;-92
2023/05/05 06:10:38;;;;;;;11.83;9.30;;;11.50;99.90;;;;;;4915872;29;20422;-93
2023/05/05 06:13:04;;;;;;;11.55;9.60;;;11.60;99.90;;;;;;4916170;29;20406;-92
2023/05/05 06:15:30;;;;;;;11.65;9.63;;;11.50;99.90;;;;;;4916753;29;20410;-92
2023/05/05 06:17:55;;;;;;;12.38;9.38;;;11.90;99.90;;;;;;4914843;29;20432;-91
2023/05/05 06:20:21;;;;;;;10.53;9.43;;;11.80;99.90;;;;;;4917146;29;20509;-94
2023/05/05 06:22:47;;;;;;;11.85;9.23;;;11.40;99.90;;;;;;4914458;29;20851;-91
2023/05/05 06:25:13;;;;;;;11.80;9.63;;;11.50;99.90;;;;;;4917282;29;20422;-91
2023/05/05 06:27:38;;;;;;;12.50;9.57;;;11.60;99.90;;;;;;4925824;28;20503;-92
2023/05/05 06:30:05;;;;;;;10.88;9.40;;;11.60;99.90;;;;;;4935682;28;20416;-93
2023/05/05 06:32:31;;;;;;;11.10;9.77;;;11.60;99.90;;;;;;4935507;28;20420;-92
2023/05/05 06:34:57;;;;;;;10.60;9.13;;;11.80;99.90;;;;;;4934493;28;20786;-92
2023/05/05 06:37:23;;;;;;;10.63;9.57;;;11.90;99.90;;;;;;4935949;28;20405;-94
2023/05/05 06:39:48;;;;;;;10.97;8.67;;;12.10;99.90;;;;;;4932973;28;20735;-95
2023/05/05 06:42:14;;;;;;;10.20;8.60;;;11.90;99.90;;;;;;4935731;28;20431;-92
2023/05/05 06:44:40;;;;;;;10.50;9.27;;;12.40;99.90;;;;;;4932687;28;20494;-94
2023/05/05 06:47:06;;;;;;;11.50;9.13;;;12.50;99.90;;;;;;4935996;28;20463;-92
2023/05/05 06:49:31;;;;;;;10.20;9.10;;;12.80;99.90;;;;;;4933786;28;20412;-93
2023/05/05 06:51:57;;;;;;;9.95;8.23;;;13.40;99.90;;;;;;4935276;28;20416;-93
2023/05/05 06:54:33;;;;;;;10.20;8.47;;;13.10;99.90;;;;;;4935866;28;20419;-94
2023/05/05 06:56:59;;;;;;;9.50;8.47;;;13.20;99.90;;;;;;4934596;28;20429;-94
2023/05/05 06:59:25;;;;;;;10.30;8.87;;;13.10;99.90;;;;;;4936254;28;21070;-93
2023/05/05 07:01:51;;;;;;;10.73;8.93;;;13.30;99.90;;;;;;4932080;28;20539;-94
2023/05/05 07:04:20;;;;;;;10.38;8.85;;;13.50;99.90;;;;;;4935857;28;20412;-95
2023/05/05 07:06:53;;;;;;;10.32;8.85;;;13.80;99.90;;;;;;4933606;28;20472;-94
2023/05/05 07:09:20;;;;;;;10.45;8.90;;;13.90;99.90;;;;;;4936060;28;20566;-94
2023/05/05 07:11:45;;;;;;;11.07;9.00;;;13.50;99.90;;;;;;4934316;28;20506;-91
2023/05/05 07:14:11;;;;;;;10.57;9.48;;;14.30;99.90;;;;;;4934060;28;20424;-95
2023/05/05 07:16:37;;;;;;;10.63;9.07;;;13.80;99.90;;;;;;4937190;28;20420;-94
2023/05/05 07:19:06;;;;;;;10.35;9.25;;;14.10;99.90;;;;;;4932514;28;20503;-94
2023/05/05 07:21:32;;;;;;;10.25;9.20;;;14.00;99.90;;;;;;4935566;28;20463;-92
2023/05/05 07:23:58;;;;;;;10.13;9.13;;;14.20;99.90;;;;;;4932728;28;20457;-93
2023/05/05 07:26:25;;;;;;;10.73;9.57;;;14.40;99.90;;;;;;4935155;28;20436;-93
2023/05/05 07:28:51;;;;;;;10.82;9.45;;;14.50;99.90;;;;;;4932395;28;20506;-92
2023/05/05 07:31:20;;;;;;;11.02;9.90;;;15.10;99.90;;;;;;4935031;28;20458;-92
2023/05/05 07:33:49;;;;;;;10.80;9.70;;;14.90;99.90;;;;;;4934309;28;20412;-95
2023/05/05 07:36:17;;;;;;;11.00;9.90;;;14.70;99.90;;;;;;4932483;28;20915;-94
2023/05/05 07:38:43;;;;;;;10.73;9.55;;;15.20;99.90;;;;;;4935341;28;20408;-94
2023/05/05 07:41:10;;;;;;;10.77;9.60;;;15.20;99.90;;;;;;4932886;28;20440;-93
2023/05/05 07:43:37;;;;;;;12.13;10.85;;;14.90;99.90;;;;;;4935307;28;20899;-94
2023/05/05 07:46:03;;;;;;;11.98;10.77;;;15.30;99.90;;;;;;4913393;29;20429;-91
2023/05/05 07:48:29;;;;;;;12.48;11.10;;;15.30;99.90;;;;;;4916082;29;20414;-94
2023/05/05 07:50:55;;;;;;;11.87;10.67;;;16.00;99.90;;;;;;4913885;29;20992;-93
2023/05/05 07:53:20;;;;;;;12.30;11.00;;;15.50;99.90;;;;;;4915772;29;21192;-91
2023/05/05 07:55:46;;;;;;;12.07;10.70;;;15.70;99.90;;;;;;4915893;29;20472;-93
2023/05/05 07:58:12;;;;;;;12.40;11.20;;;16.70;99.90;;;;;;4914470;29;20500;-94
2023/05/05 08:00:38;;;;;;;13.07;11.23;;;16.50;99.90;;;;;;4915904;29;20465;-91
2023/05/05 08:03:04;;;;;;;12.07;10.98;;;16.20;99.90;;;;;;4912443;29;20453;-93
2023/05/05 08:05:30;;;;;;;11.95;10.70;;;17.10;99.90;;;;;;4916142;29;20417;-91
2023/05/05 08:07:56;;;;;;;13.10;11.35;;;16.50;99.90;;;;;;4913004;29;20416;-93
2023/05/05 08:10:21;;;;;;;12.60;11.40;;;16.70;99.90;;;;;;4916418;29;20414;-93
2023/05/05 08:12:47;;;;;;;13.27;11.98;;;16.20;99.90;;;;;;4913728;29;20413;-93
2023/05/05 08:15:13;;;;;;;13.33;12.10;;;16.20;99.90;;;;;;4915591;29;20488;-93
2023/05/05 08:17:47;;;;;;;13.75;12.45;;;16.40;99.90;;;;;;4915401;29;20418;-92
2023/05/05 08:20:14;;;;;;;14.40;12.95;;;16.50;99.90;;;;;;4913329;29;20901;-94
2023/05/05 08:22:41;;;;;;;13.85;12.30;;;16.80;99.90;;;;;;4915815;29;20418;-92
2023/05/05 08:25:09;;;;;;;13.38;12.02;;;16.90;99.90;;;;;;4913318;29;20488;-92
2023/05/05 08:27:37;;;;;;;14.73;13.32;;;17.00;99.90;;;;;;4915935;29;20944;-94
2023/05/05 08:30:03;;;;;;;15.05;13.43;;;17.10;99.90;;;;;;4913403;29;20413;-91
2023/05/05 08:32:30;;;;;;;14.45;12.98;;;16.90;99.90;;;;;;4915079;29;20476;-93
2023/05/05 08:34:55;;;;;;;14.80;13.38;;;17.30;99.90;;;;;;4915230;28;20825;-92
2023/05/05 08:37:21;;;;;;;14.35;12.77;;;18.10;99.90;;;;;;4916613;29;20413;-95
2023/05/05 08:39:47;;;;;;;14.77;13.27;;;18.00;99.90;;;;;;4919502;29;20410;-93
2023/05/05 08:42:12;;;;;;;15.48;13.98;;;18.00;99.90;;;;;;4915952;29;20437;-94
2023/05/05 08:44:38;;;;;;;14.87;13.37;;;17.90;99.90;;;;;;4926783;28;20420;-93
2023/05/05 08:47:04;;;;;;;14.80;13.50;;;17.80;99.90;;;;;;4935336;28;20424;-92
2023/05/05 08:49:37;;;;;;;15.60;13.93;;;17.90;99.90;;;;;;4937572;28;20408;-91
2023/05/05 08:52:08;;;;;;;15.70;14.07;;;18.00;99.90;;;;;;4936734;28;20404;-95
2023/05/05 08:54:37;;;;;;;15.85;14.25;;;18.40;99.90;;;;;;4934040;28;20915;-90
2023/05/05 08:57:06;;;;;;;16.42;14.82;;;18.50;99.90;;;;;;4919143;29;20416;-90
2023/05/05 08:59:34;;;;;;;16.77;15.15;;;18.80;99.90;;;;;;4931355;29;20424;-91
2023/05/05 09:02:04;;;;;;;16.58;14.88;;;19.00;99.90;;;;;;4917167;29;20438;-86
2023/05/05 09:04:30;;;;;;;17.70;15.80;;;18.80;99.90;;;;;;4929047;29;20426;-87
2023/05/05 09:06:59;;;;;;;17.60;15.88;;;18.60;99.90;;;;;;4932502;29;20462;-89
2023/05/05 09:09:26;;;;;;;18.45;16.65;;;18.40;99.90;;;;;;4915104;29;20417;-90
2023/05/05 09:11:54;;;;;;;18.63;16.83;;;18.70;99.90;;;;;;4914733;29;20473;-89
2023/05/05 09:14:20;;;;;;;18.40;16.58;;;18.50;99.90;;;;;;4916514;29;20421;-89
2023/05/05 09:16:45;;;;;;;19.13;17.23;;;18.80;99.90;;;;;;4915796;29;20421;-88
2023/05/05 09:19:11;;;;;;;20.33;18.27;;;19.00;99.90;;;;;;4911005;29;20746;-86
2023/05/05 09:21:45;;;;;;;17.80;16.00;;;19.20;99.90;;;;;;4929822;29;20484;-89
2023/05/05 09:24:11;;;;;;;17.85;16.02;;;19.70;99.90;;;;;;4917050;29;20437;-87
2023/05/05 09:26:45;;;;;;;17.93;16.13;;;19.70;99.90;;;;;;4929685;29;20995;-88
2023/05/05 09:29:18;;;;;;;18.65;16.75;;;19.70;99.90;;;;;;4930724;29;20826;-88
2023/05/05 09:31:44;;;;;;;20.88;18.77;;;19.70;99.90;;;;;;4917451;29;20418;-91
2023/05/05 09:34:14;;;;;;;20.97;18.87;;;20.00;99.90;;;;;;4930553;29;20437;-87
2023/05/05 09:36:46;;;;;;;28.02;25.23;;;20.00;99.90;;;;;;4932289;29;20430;-89
2023/05/05 09:39:15;;;;;;;27.53;24.87;;;20.50;99.90;;;;;;4930081;29;20410;-88
2023/05/05 09:41:42;;;;;;;31.27;28.10;;;20.20;99.90;;;;;;4932034;29;20438;-86
2023/05/05 09:44:08;;;;;;;29.08;26.17;;;20.70;99.90;;;;;;4930759;29;20422;-84
2023/05/05 09:46:34;;;;;;;26.25;23.75;;;20.50;99.90;;;;;;4930022;29;20969;-87
2023/05/05 09:49:12;;;;;;;28.33;25.42;;;20.30;99.90;;;;;;4932030;29;20544;-86
2023/05/05 09:51:38;;;;;;;26.20;23.50;;;20.10;99.90;;;;;;4929429;29;20814;-87
2023/05/05 09:54:03;;;;;;;23.63;21.20;;;20.10;99.90;;;;;;4916039;29;20403;-86
2023/05/05 09:56:41;;;;;;;21.97;19.77;;;20.40;99.90;;;;;;4929422;29;20929;-87
2023/05/05 09:59:08;;;;;;;21.53;19.43;;;20.30;99.90;;;;;;4931764;29;20476;-88
2023/05/05 10:01:34;;;;;;;20.45;18.42;;;20.90;99.90;;;;;;4931065;29;20500;-84
2023/05/05 10:03:59;;;;;;;18.20;16.50;;;20.80;99.90;;;;;;4947240;29;20497;-86
2023/05/05 10:06:46;;;;;;;16.90;15.30;;;21.00;99.90;;;;;;4931883;29;20453;-85
2023/05/05 10:09:12;;;;;;;17.60;15.90;;;21.10;99.90;;;;;;4929030;29;20421;-85
2023/05/05 10:11:40;;;;;;;15.02;13.63;;;21.30;99.90;;;;;;4932361;29;20425;-87
2023/05/05 10:14:06;;;;;;;16.60;14.90;;;21.40;98.70;;;;;;4914010;29;20413;-85
2023/05/05 10:16:34;;;;;;;17.05;15.48;;;21.70;99.80;;;;;;4930780;29;20509;-85
2023/05/05 10:19:01;;;;;;;16.30;14.80;;;21.70;97.70;;;;;;4931279;29;20410;-85
2023/05/05 10:21:32;;;;;;;16.13;14.65;;;21.60;96.80;;;;;;4929351;29;20797;-86
2023/05/05 10:24:08;;;;;;;16.33;14.82;;;21.70;98.60;;;;;;4932023;29;20825;-86
2023/05/05 10:26:39;;;;;;;17.00;15.50;;;21.70;98.00;;;;;;4928970;29;20481;-86
2023/05/05 10:29:15;;;;;;;16.63;15.20;;;21.70;97.20;;;;;;4931545;29;20418;-85
2023/05/05 10:31:54;;;;;;;17.98;16.38;;;21.60;98.90;;;;;;4930473;29;20501;-83
2023/05/05 10:34:29;;;;;;;17.75;16.10;;;21.70;97.50;;;;;;4929203;29;20418;-85
2023/05/05 10:36:56;;;;;;;18.63;16.92;;;21.50;99.70;;;;;;4915673;29;20418;-86
2023/05/05 10:39:23;;;;;;;18.27;16.58;;;21.30;99.10;;;;;;4928987;29;20774;-86
2023/05/05 10:41:50;;;;;;;18.40;16.77;;;21.00;99.90;;;;;;4931178;29;20445;-89
2023/05/05 10:44:16;;;;;;;18.95;17.05;;;20.90;99.90;;;;;;4928784;29;20414;-85
2023/05/05 10:46:43;;;;;;;19.73;17.88;;;21.10;99.90;;;;;;4931236;29;20420;-87
2023/05/05 10:49:32;;;;;;;19.67;17.77;;;20.50;99.90;;;;;;4914618;29;20435;-87
2023/05/05 10:52:21;;;;;;;17.08;15.48;;;20.60;99.90;;;;;;4928804;29;20501;-86
2023/05/05 10:54:57;;;;;;;16.85;15.18;;;20.80;99.90;;;;;;4931333;29;20430;-88
2023/05/05 10:57:26;;;;;;;13.50;12.30;;;21.30;99.90;;;;;;4928882;29;20406;-85
2023/05/05 10:59:51;;;;;;;18.80;17.08;;;21.60;98.00;;;;;;4929289;29;20421;-85
2023/05/05 11:02:28;;;;;;;17.63;16.00;;;21.70;99.90;;;;;;4930372;29;20437;-87
2023/05/05 11:05:13;;;;;;;13.00;11.60;;;21.60;99.90;;;;;;4928157;29;20545;-85
2023/05/05 11:07:40;;;;;;;12.38;11.07;;;21.80;95.30;;;;;;4930754;29;20437;-87
2023/05/05 11:10:07;;;;;;;11.98;10.70;;;21.60;99.90;;;;;;4912297;29;20414;-85
2023/05/05 11:12:53;;;;;;;11.75;10.50;;;21.70;98.90;;;;;;4930481;29;20421;-87
2023/05/05 11:15:25;;;;;;;11.60;9.45;;;21.90;97.80;;;;;;4930150;29;20429;-86
2023/05/05 11:17:51;;;;;;;8.80;7.40;;;21.90;95.40;;;;;;4928276;29;20430;-86
2023/05/05 11:20:42;;;;;;;9.45;8.20;;;21.80;93.70;;;;;;4930529;29;20440;-84
2023/05/05 11:23:07;;;;;;;8.95;8.05;;;21.70;94.40;;;;;;4928005;29;20421;-87
2023/05/05 11:25:36;;;;;;;10.97;9.33;;;21.70;94.00;;;;;;4930445;29;20426;-86
2023/05/05 11:28:16;;;;;;;9.00;8.10;;;21.70;96.90;;;;;;4929161;29;20949;-85
2023/05/05 11:30:53;;;;;;;10.00;8.20;;;21.70;92.30;;;;;;4928015;29;20461;-87
2023/05/05 11:33:32;;;;;;;10.30;7.60;;;21.60;92.30;;;;;;4930123;29;20421;-86
2023/05/05 11:36:06;;;;;;;8.07;6.50;;;21.50;93.80;;;;;;4927716;29;20497;-86
2023/05/05 11:38:34;;;;;;;8.57;7.60;;;21.40;94.00;;;;;;4914176;29;20429;-86
2023/05/05 11:41:11;;;;;;;8.98;8.02;;;21.30;94.10;;;;;;4929445;29;20448;-87
2023/05/05 11:43:37;;;;;;;9.60;7.95;;;21.20;95.80;;;;;;4912737;29;20469;-86
2023/05/05 11:46:13;;;;;;;8.13;6.50;;;21.30;97.80;;;;;;4930640;29;20771;-90
2023/05/05 11:48:51;;;;;;;7.18;6.47;;;21.40;99.00;;;;;;4912026;29;20461;-88
2023/05/05 11:51:18;;;;;;;7.93;6.72;;;21.60;90.60;;;;;;4930740;29;20418;-89
2023/05/05 11:53:46;;;;;;;7.97;7.18;;;21.60;93.60;;;;;;4928790;29;20427;-89
2023/05/05 11:56:18;;;;;;;8.88;7.45;;;21.50;94.30;;;;;;4929632;29;20426;-88
2023/05/05 11:58:48;;;;;;;7.65;6.72;;;21.60;91.30;;;;;;4930638;29;20816;-89
2023/05/05 12:01:14;;;;;;;8.68;7.05;;;21.20;96.20;;;;;;4911912;29;20473;-88
2023/05/05 12:03:40;;;;;;;8.77;6.28;;;21.00;96.60;;;;;;4930363;29;20406;-88
2023/05/05 12:06:07;;;;;;;7.40;5.30;;;21.10;97.60;;;;;;4911706;29;20970;-86
2023/05/05 12:08:36;;;;;;;7.07;5.57;;;20.50;95.80;;;;;;4930509;29;20413;-85
2023/05/05 12:11:10;;;;;;;7.10;5.72;;;20.40;98.30;;;;;;4931238;29;20765;-86
2023/05/05 12:13:36;;;;;;;6.17;5.03;;;20.40;99.20;;;;;;4932652;29;20420;-87
2023/05/05 12:16:11;;;;;;;6.10;5.47;;;20.30;99.60;;;;;;4933473;29;20422;-85
2023/05/05 12:18:38;;;;;;;6.60;5.17;;;20.30;97.50;;;;;;4931331;29;20789;-84
2023/05/05 12:21:19;;;;;;;6.25;5.40;;;20.30;99.70;;;;;;4951033;29;20855;-85
2023/05/05 12:23:45;;;;;;;6.18;5.57;;;20.30;98.10;;;;;;4931068;29;20472;-85
2023/05/05 12:26:28;;;;;;;7.15;6.10;;;20.20;98.70;;;;;;4917590;29;20453;-84
2023/05/05 12:28:54;;;;;;;7.70;6.50;;;20.10;97.80;;;;;;4933213;29;20437;-85
2023/05/05 12:31:20;;;;;;;8.77;7.75;;;20.00;99.90;;;;;;4930959;29;20406;-86
2023/05/05 12:33:47;;;;;;;9.83;8.20;;;19.90;99.90;;;;;;4933700;29;20418;-86
2023/05/05 12:36:14;;;;;;;9.70;8.70;;;19.90;99.90;;;;;;4915216;29;20512;-86
2023/05/05 12:38:40;;;;;;;10.18;9.23;;;20.00;99.90;;;;;;4933253;29;20410;-86
2023/05/05 12:41:06;;;;;;;11.82;10.63;;;19.60;99.90;;;;;;4930734;29;20430;-86
2023/05/05 12:43:33;;;;;;;11.50;10.32;;;19.50;99.90;;;;;;4932810;29;20428;-86
2023/05/05 12:46:07;;;;;;;11.57;10.38;;;19.40;99.90;;;;;;4918209;29;20450;-88